createdAt,value
2023-04-29T00:00:25.721Z,12.18
2023-04-29T00:02:53.313Z,12.41
2023-04-29T00:05:21.215Z,12.14
2023-04-29T00:07:48.752Z,12.12
2023-04-29T00:10:16.245Z,12.08
2023-04-29T00:12:43.689Z,12.20
2023-04-29T00:15:11.397Z,12.30
2023-04-29T00:17:39.481Z,12.36
2023-04-29T00:20:07.668Z,12.51
2023-04-29T00:22:38.023Z,12.52
2023-04-29T00:25:06.162Z,12.15
2023-04-29T00:27:33.562Z,12.26
2023-04-29T00:30:00.964Z,12.14
2023-04-29T00:32:28.405Z,12.26
2023-04-29T00:34:57.395Z,12.06
2023-04-29T00:37:24.845Z,12.11
2023-04-29T00:39:52.388Z,12.20
2023-04-29T00:42:20.012Z,11.99
2023-04-29T00:44:47.377Z,12.13
2023-04-29T00:47:14.809Z,12.31
2023-04-29T00:49:42.255Z,12.19
2023-04-29T00:52:11.702Z,12.03
2023-04-29T00:54:39.922Z,12.09
2023-04-29T00:57:07.582Z,12.34
2023-04-29T00:59:35.249Z,12.20
2023-04-29T01:02:04.173Z,12.14
2023-04-29T01:04:32.024Z,12.05
2023-04-29T01:06:59.392Z,11.98
2023-04-29T01:09:32.843Z,11.98
2023-04-29T01:12:29.505Z,12.02
2023-04-29T01:15:08.713Z,12.04
2023-04-29T01:17:42.667Z,12.13
2023-04-29T01:20:11.039Z,12.08
2023-04-29T01:22:39.584Z,11.98
2023-04-29T01:25:07.861Z,12.06
2023-04-29T01:27:40.995Z,12.18
2023-04-29T01:30:08.789Z,11.99
2023-04-29T01:32:54.013Z,11.96
2023-04-29T01:35:44.822Z,11.73
2023-04-29T01:38:24.540Z,11.88
2023-04-29T01:41:00.701Z,11.61
2023-04-29T01:43:31.078Z,12.08
2023-04-29T01:45:59.300Z,11.73
2023-04-29T01:48:26.925Z,11.90
2023-04-29T01:50:54.300Z,11.83
2023-04-29T01:53:21.795Z,12.25
2023-04-29T01:55:49.218Z,12.13
2023-04-29T01:58:16.642Z,12.04
2023-04-29T02:00:44.436Z,12.08
2023-04-29T02:03:12.180Z,11.93
2023-04-29T02:05:39.711Z,12.17
2023-04-29T02:08:07.788Z,11.91
2023-04-29T02:10:35.321Z,12.05
2023-04-29T02:13:03.061Z,11.84
2023-04-29T02:15:30.486Z,11.88
2023-04-29T02:17:57.868Z,11.74
2023-04-29T02:20:25.312Z,11.85
2023-04-29T02:22:52.703Z,11.89
2023-04-29T02:25:20.128Z,11.75
2023-04-29T02:27:47.549Z,11.83
2023-04-29T02:30:14.947Z,11.78
2023-04-29T02:32:42.427Z,11.89
2023-04-29T02:35:10.157Z,12.01
2023-04-29T02:37:37.528Z,11.87
2023-04-29T02:40:06.081Z,12.21
2023-04-29T02:42:33.537Z,12.08
2023-04-29T02:45:01.139Z,12.04
2023-04-29T02:47:28.560Z,12.02
2023-04-29T02:49:55.976Z,12.11
2023-04-29T02:52:23.364Z,12.20
2023-04-29T02:54:50.770Z,12.00
2023-04-29T02:57:18.456Z,12.12
2023-04-29T02:59:45.915Z,12.22
2023-04-29T03:02:13.438Z,11.99
2023-04-29T03:04:41.040Z,11.99
2023-04-29T03:07:08.839Z,11.93
2023-04-29T03:09:36.253Z,12.15
2023-04-29T03:12:03.985Z,12.45
2023-04-29T03:14:31.478Z,12.37
2023-04-29T03:16:58.993Z,12.25
2023-04-29T03:19:26.506Z,12.06
2023-04-29T03:21:54.125Z,11.94
2023-04-29T03:24:21.669Z,11.88
2023-04-29T03:26:49.055Z,12.13
2023-04-29T03:29:16.546Z,12.03
2023-04-29T03:31:44.191Z,12.20
2023-04-29T03:34:11.832Z,12.08
2023-04-29T03:36:39.285Z,12.06
2023-04-29T03:39:06.787Z,12.06
2023-04-29T03:41:34.275Z,12.11
2023-04-29T03:44:01.875Z,12.07
2023-04-29T03:46:29.493Z,11.96
2023-04-29T03:48:57.624Z,12.35
2023-04-29T03:51:25.240Z,12.26
2023-04-29T03:53:53.788Z,11.96
2023-04-29T03:56:23.018Z,12.23
2023-04-29T03:58:50.451Z,12.02
2023-04-29T04:01:17.899Z,11.98
2023-04-29T04:03:45.410Z,12.21
2023-04-29T04:06:12.886Z,12.20
2023-04-29T04:08:41.218Z,11.95
2023-04-29T04:11:09.646Z,12.08
2023-04-29T04:13:37.102Z,11.96
2023-04-29T04:16:04.725Z,11.97
2023-04-29T04:18:32.238Z,11.97
2023-04-29T04:20:59.654Z,12.00
2023-04-29T04:23:27.114Z,12.03
2023-04-29T04:25:54.506Z,11.95
2023-04-29T04:28:21.897Z,12.24
2023-04-29T04:30:49.408Z,12.02
2023-04-29T04:33:17.058Z,12.02
2023-04-29T04:35:44.502Z,12.17
2023-04-29T04:38:12.583Z,12.00
2023-04-29T04:40:43.362Z,12.06
2023-04-29T04:43:10.870Z,12.05
2023-04-29T04:45:38.299Z,12.01
2023-04-29T04:48:05.942Z,12.02
2023-04-29T04:50:33.379Z,11.97
2023-04-29T04:53:00.968Z,12.05
2023-04-29T04:55:28.450Z,12.02
2023-04-29T04:57:55.815Z,11.92
2023-04-29T05:00:23.241Z,12.23
2023-04-29T05:02:51.263Z,12.34
2023-04-29T05:05:18.825Z,12.46
2023-04-29T05:07:46.286Z,12.30
2023-04-29T05:10:13.781Z,12.20
2023-04-29T05:12:41.284Z,12.33
2023-04-29T05:15:09.084Z,12.16
2023-04-29T05:17:36.805Z,11.90
2023-04-29T05:20:04.358Z,12.42
2023-04-29T05:22:31.782Z,12.37
2023-04-29T05:25:02.989Z,12.44
2023-04-29T05:27:30.612Z,12.57
2023-04-29T05:29:58.182Z,12.70
2023-04-29T05:32:25.657Z,12.41
2023-04-29T05:34:53.063Z,12.47
2023-04-29T05:37:20.553Z,12.75
2023-04-29T05:39:47.935Z,12.65
2023-04-29T05:42:15.752Z,12.54
2023-04-29T05:44:43.144Z,12.70
2023-04-29T05:47:10.576Z,12.47
2023-04-29T05:49:38.085Z,12.38
2023-04-29T05:52:06.641Z,12.55
2023-04-29T05:54:34.557Z,12.64
2023-04-29T05:57:03.273Z,12.29
2023-04-29T05:59:31.836Z,12.39
2023-04-29T06:01:59.776Z,12.29
2023-04-29T06:04:27.865Z,12.12
2023-04-29T06:06:56.799Z,12.29
2023-04-29T06:09:27.859Z,12.15
2023-04-29T06:11:56.120Z,12.18
2023-04-29T06:14:23.657Z,12.45
2023-04-29T06:16:51.093Z,12.46
2023-04-29T06:19:19.260Z,12.71
2023-04-29T06:21:46.618Z,12.43
2023-04-29T06:24:14.045Z,12.77
2023-04-29T06:26:41.467Z,12.60
2023-04-29T06:29:09.656Z,12.73
2023-04-29T06:31:37.195Z,12.57
2023-04-29T06:34:04.728Z,12.60
2023-04-29T06:36:32.429Z,12.34
2023-04-29T06:38:59.885Z,12.47
2023-04-29T06:41:27.443Z,12.71
2023-04-29T06:43:54.856Z,12.56
2023-04-29T06:46:22.272Z,12.86
2023-04-29T06:48:49.683Z,12.97
2023-04-29T06:51:17.329Z,13.04
2023-04-29T06:53:44.663Z,13.23
2023-04-29T06:56:12.115Z,13.42
2023-04-29T06:58:39.915Z,12.95
2023-04-29T07:01:08.529Z,12.98
2023-04-29T07:03:36.084Z,13.20
2023-04-29T07:06:03.555Z,13.12
2023-04-29T07:08:31.343Z,13.00
2023-04-29T07:10:59.218Z,13.04
2023-04-29T07:13:27.209Z,13.33
2023-04-29T07:15:54.619Z,13.23
2023-04-29T07:18:22.077Z,13.03
2023-04-29T07:20:51.128Z,13.48
2023-04-29T07:23:18.526Z,13.62
2023-04-29T07:25:46.006Z,13.61
2023-04-29T07:28:13.422Z,13.60
2023-04-29T07:30:40.888Z,13.93
2023-04-29T07:33:08.371Z,13.88
2023-04-29T07:35:35.879Z,14.20
2023-04-29T07:38:03.339Z,14.25
2023-04-29T07:40:30.725Z,14.81
2023-04-29T07:42:58.072Z,14.38
2023-04-29T07:45:25.480Z,14.74
2023-04-29T07:47:52.841Z,14.92
2023-04-29T07:50:20.247Z,14.14
2023-04-29T07:52:47.619Z,14.40
2023-04-29T07:55:15.025Z,14.56
2023-04-29T07:57:42.473Z,14.59
2023-04-29T08:00:10.675Z,14.41
2023-04-29T08:02:38.302Z,14.03
2023-04-29T08:05:06.056Z,14.19
2023-04-29T08:07:33.613Z,14.40
2023-04-29T08:10:01.047Z,14.67
2023-04-29T08:12:28.502Z,14.53
2023-04-29T08:14:55.923Z,14.62
2023-04-29T08:17:23.321Z,14.27
2023-04-29T08:19:50.813Z,14.28
2023-04-29T08:22:18.280Z,14.46
2023-04-29T08:24:45.722Z,14.40
2023-04-29T08:27:13.073Z,14.16
2023-04-29T08:29:40.496Z,15.10
2023-04-29T08:32:07.982Z,14.58
2023-04-29T08:34:36.434Z,14.63
2023-04-29T08:37:04.156Z,14.58
2023-04-29T08:39:31.569Z,14.92
2023-04-29T08:41:59.905Z,15.04
2023-04-29T08:44:27.933Z,15.19
2023-04-29T08:46:55.857Z,15.40
2023-04-29T08:49:23.250Z,15.07
2023-04-29T08:51:51.606Z,15.17
2023-04-29T08:54:19.072Z,15.49
2023-04-29T08:56:47.317Z,15.31
2023-04-29T08:59:18.209Z,16.07
2023-04-29T09:01:50.518Z,17.12
2023-04-29T09:04:36.367Z,16.27
2023-04-29T09:07:04.062Z,16.03
2023-04-29T09:09:32.916Z,15.67
2023-04-29T09:12:00.538Z,15.74
2023-04-29T09:14:28.590Z,15.80
2023-04-29T09:16:56.114Z,15.72
2023-04-29T09:19:41.791Z,15.83
2023-04-29T09:22:09.322Z,15.95
2023-04-29T09:24:37.998Z,16.47
2023-04-29T09:27:05.521Z,15.70
2023-04-29T09:29:34.543Z,16.31
2023-04-29T09:32:01.964Z,15.84
2023-04-29T09:34:33.723Z,16.20
2023-04-29T09:37:01.130Z,15.97
2023-04-29T09:39:28.533Z,16.52
2023-04-29T09:41:55.935Z,16.29
2023-04-29T09:44:27.414Z,16.32
2023-04-29T09:46:58.310Z,16.51
2023-04-29T09:49:27.021Z,16.71
2023-04-29T09:51:55.313Z,16.64
2023-04-29T09:54:23.763Z,16.28
2023-04-29T09:56:51.887Z,16.50
2023-04-29T09:59:22.720Z,16.93
2023-04-29T10:01:50.981Z,17.05
2023-04-29T10:04:19.578Z,16.55
2023-04-29T10:06:49.260Z,17.44
2023-04-29T10:09:17.445Z,17.56
2023-04-29T10:11:49.292Z,18.18
2023-04-29T10:14:17.845Z,17.70
2023-04-29T10:16:49.429Z,18.07
2023-04-29T10:19:20.601Z,18.55
2023-04-29T10:21:50.061Z,18.31
2023-04-29T10:24:18.691Z,18.38
2023-04-29T10:26:48.227Z,17.52
2023-04-29T10:29:16.619Z,18.13
2023-04-29T10:31:44.712Z,18.00
2023-04-29T10:34:12.960Z,17.48
2023-04-29T10:36:40.912Z,18.27
2023-04-29T10:39:11.914Z,19.20
2023-04-29T10:41:46.917Z,19.05
2023-04-29T10:44:14.836Z,18.31
2023-04-29T10:46:42.268Z,18.83
2023-04-29T10:49:11.809Z,19.35
2023-04-29T10:51:42.913Z,19.05
2023-04-29T10:54:10.779Z,19.09
2023-04-29T10:56:38.722Z,18.05
2023-04-29T10:59:06.416Z,18.68
2023-04-29T11:01:47.031Z,19.10
2023-04-29T11:04:15.654Z,19.11
2023-04-29T11:06:47.478Z,19.26
2023-04-29T11:09:16.104Z,19.71
2023-04-29T11:11:48.950Z,20.75
2023-04-29T11:14:17.149Z,19.86
2023-04-29T11:16:52.671Z,20.57
2023-04-29T11:19:20.391Z,21.70
2023-04-29T11:21:48.200Z,20.49
2023-04-29T11:24:17.498Z,20.87
2023-04-29T11:26:46.324Z,20.58
2023-04-29T11:29:13.822Z,21.50
2023-04-29T11:31:41.590Z,20.63
2023-04-29T11:34:09.074Z,19.70
2023-04-29T11:36:37.141Z,19.30
2023-04-29T11:39:05.184Z,19.52
2023-04-29T11:41:32.737Z,19.80
2023-04-29T11:44:01.242Z,20.41
2023-04-29T11:46:31.890Z,21.24
2023-04-29T11:49:00.486Z,20.47
2023-04-29T11:51:28.562Z,20.50
2023-04-29T11:53:56.648Z,20.95
2023-04-29T11:56:25.493Z,20.88
2023-04-29T11:58:57.052Z,20.16
2023-04-29T12:01:24.550Z,20.25
2023-04-29T12:03:52.214Z,20.96
2023-04-29T12:06:19.814Z,19.96
2023-04-29T12:08:48.526Z,20.09
2023-04-29T12:11:16.292Z,20.34
2023-04-29T12:13:43.754Z,20.22
2023-04-29T12:16:11.425Z,21.58
2023-04-29T12:18:39.197Z,21.52
2023-04-29T12:21:06.714Z,21.33
2023-04-29T12:23:36.655Z,20.60
2023-04-29T12:26:04.898Z,21.35
2023-04-29T12:28:32.242Z,21.28
2023-04-29T12:31:00.294Z,21.07
2023-04-29T12:33:28.711Z,22.19
2023-04-29T12:35:59.989Z,21.34
2023-04-29T12:38:33.733Z,21.72
2023-04-29T12:41:02.089Z,21.79
2023-04-29T12:43:29.745Z,21.64
2023-04-29T12:46:04.008Z,22.40
2023-04-29T12:48:33.350Z,21.59
2023-04-29T12:51:01.771Z,22.17
2023-04-29T12:53:32.968Z,21.91
2023-04-29T12:56:00.481Z,21.88
2023-04-29T12:58:31.253Z,22.31
2023-04-29T13:00:59.314Z,21.49
2023-04-29T13:03:27.037Z,20.99
2023-04-29T13:05:55.040Z,21.00
2023-04-29T13:08:23.209Z,22.19
2023-04-29T13:10:50.920Z,22.89
2023-04-29T13:13:18.664Z,22.40
2023-04-29T13:15:46.253Z,22.01
2023-04-29T13:18:13.658Z,22.33
2023-04-29T13:20:43.510Z,22.48
2023-04-29T13:23:12.045Z,22.35
2023-04-29T13:25:39.578Z,22.66
2023-04-29T13:28:07.479Z,22.49
2023-04-29T13:30:34.926Z,21.29
2023-04-29T13:33:09.813Z,22.21
2023-04-29T13:35:41.648Z,21.69
2023-04-29T13:38:09.517Z,21.66
2023-04-29T13:40:40.806Z,22.08
2023-04-29T13:43:15.816Z,22.10
2023-04-29T13:45:52.316Z,22.36
2023-04-29T13:48:34.886Z,21.99
2023-04-29T13:54:29.261Z,22.15
2023-04-29T14:03:58.407Z,21.94
2023-04-29T14:06:28.342Z,21.78
2023-04-29T14:08:55.835Z,21.38
2023-04-29T14:11:23.348Z,21.43
2023-04-29T14:13:50.872Z,20.38
2023-04-29T14:16:18.390Z,19.64
2023-04-29T14:18:45.821Z,19.57
2023-04-29T14:21:13.723Z,19.25
2023-04-29T14:23:41.189Z,18.97
2023-04-29T14:26:22.979Z,19.04
2023-04-29T14:28:57.836Z,18.31
2023-04-29T14:31:28.085Z,18.72
2023-04-29T14:33:56.407Z,18.64
2023-04-29T14:36:24.028Z,18.86
2023-04-29T14:38:51.508Z,18.99
2023-04-29T14:41:19.045Z,18.24
2023-04-29T14:43:46.636Z,18.60
2023-04-29T14:46:14.236Z,18.73
2023-04-29T14:48:41.685Z,18.46
2023-04-29T14:51:09.631Z,18.55
2023-04-29T14:53:37.102Z,18.81
2023-04-29T14:56:04.842Z,18.55
2023-04-29T14:58:32.294Z,18.44
2023-04-29T15:00:59.712Z,18.50
2023-04-29T15:03:27.242Z,18.08
2023-04-29T15:05:54.993Z,17.78
2023-04-29T15:08:22.958Z,17.77
2023-04-29T15:10:50.754Z,18.63
2023-04-29T15:13:18.296Z,18.27
2023-04-29T15:15:45.826Z,18.22
2023-04-29T15:18:13.336Z,17.64
2023-04-29T15:20:40.724Z,18.05
2023-04-29T15:23:08.756Z,18.25
2023-04-29T15:25:36.595Z,17.91
2023-04-29T15:28:04.830Z,18.03
2023-04-29T15:30:32.746Z,18.16
2023-04-29T15:33:00.470Z,17.72
2023-04-29T15:35:28.124Z,17.97
2023-04-29T15:37:56.376Z,18.19
2023-04-29T15:40:23.889Z,18.11
2023-04-29T15:42:51.334Z,17.84
2023-04-29T15:45:20.480Z,17.57
2023-04-29T15:47:47.958Z,17.62
2023-04-29T15:50:15.480Z,17.47
2023-04-29T15:52:42.909Z,17.56
2023-04-29T15:55:10.404Z,17.76
2023-04-29T15:57:41.136Z,17.52
2023-04-29T16:00:09.534Z,17.34
2023-04-29T16:02:37.088Z,17.61
2023-04-29T16:05:04.837Z,17.50
2023-04-29T16:07:33.626Z,17.33
2023-04-29T16:10:02.261Z,17.71
2023-04-29T16:12:29.714Z,17.28
2023-04-29T16:14:57.088Z,17.18
2023-04-29T16:17:24.474Z,17.37
2023-04-29T16:19:52.235Z,17.48
2023-04-29T16:22:19.831Z,17.45
2023-04-29T16:24:49.311Z,17.20
2023-04-29T16:27:17.708Z,17.23
2023-04-29T16:29:45.127Z,17.10
2023-04-29T16:32:12.599Z,17.26
2023-04-29T16:34:39.973Z,17.09
2023-04-29T16:37:12.334Z,17.39
2023-04-29T16:39:40.315Z,17.23
2023-04-29T16:42:07.992Z,16.84
2023-04-29T16:44:35.350Z,16.99
2023-04-29T16:47:03.069Z,16.86
2023-04-29T16:49:31.396Z,16.74
2023-04-29T16:51:58.863Z,16.93
2023-04-29T16:54:26.417Z,16.92
2023-04-29T16:56:53.774Z,16.88
2023-04-29T16:59:21.517Z,17.03
2023-04-29T17:01:49.066Z,16.83
2023-04-29T17:04:16.583Z,16.96
2023-04-29T17:06:44.109Z,16.85
2023-04-29T17:09:11.579Z,17.07
2023-04-29T17:11:39.053Z,16.60
2023-04-29T17:14:06.640Z,16.66
2023-04-29T17:16:34.179Z,16.61
2023-04-29T17:19:01.606Z,16.53
2023-04-29T17:21:30.560Z,16.51
2023-04-29T17:23:58.878Z,16.69
2023-04-29T17:26:26.464Z,16.38
2023-04-29T17:28:54.090Z,16.40
2023-04-29T17:31:25.321Z,16.41
2023-04-29T17:34:05.087Z,16.34
2023-04-29T17:36:33.615Z,16.38
2023-04-29T17:39:01.041Z,16.34
2023-04-29T17:41:28.472Z,16.16
2023-04-29T17:43:55.921Z,15.84
2023-04-29T17:46:23.419Z,16.09
2023-04-29T17:48:50.869Z,15.92
2023-04-29T17:51:18.294Z,15.78
2023-04-29T17:53:45.710Z,15.54
2023-04-29T17:56:13.134Z,15.78
2023-04-29T17:58:40.724Z,15.90
2023-04-29T18:01:08.273Z,15.68
2023-04-29T18:03:35.827Z,15.73
2023-04-29T18:06:03.305Z,15.15
2023-04-29T18:08:30.778Z,14.82
2023-04-29T18:10:58.215Z,15.10
2023-04-29T18:13:27.263Z,14.77
2023-04-29T18:15:55.018Z,14.92
2023-04-29T18:18:22.451Z,14.70
2023-04-29T18:20:49.884Z,14.63
2023-04-29T18:23:17.315Z,14.59
2023-04-29T18:25:44.755Z,14.50
2023-04-29T18:28:23.591Z,14.42
2023-04-29T18:30:52.865Z,14.39
2023-04-29T18:33:20.412Z,14.39
2023-04-29T18:35:47.900Z,14.36
2023-04-29T18:38:17.324Z,14.19
2023-04-29T18:40:45.165Z,14.10
2023-04-29T18:43:17.152Z,14.12
2023-04-29T18:45:47.761Z,14.09
2023-04-29T18:48:15.339Z,14.09
2023-04-29T18:50:42.861Z,14.18
2023-04-29T18:53:10.503Z,14.03
2023-04-29T18:55:37.882Z,14.17
2023-04-29T18:58:05.574Z,14.01
2023-04-29T19:00:33.094Z,13.65
2023-04-29T19:03:00.596Z,13.74
2023-04-29T19:05:28.098Z,13.52
2023-04-29T19:07:55.545Z,13.65
2023-04-29T19:10:22.926Z,13.45
2023-04-29T19:12:50.600Z,13.34
2023-04-29T19:15:18.102Z,13.50
2023-04-29T19:17:45.572Z,13.36
2023-04-29T19:20:13.178Z,13.40
2023-04-29T19:22:40.657Z,13.49
2023-04-29T19:25:08.266Z,13.41
2023-04-29T19:27:35.706Z,13.52
2023-04-29T19:30:03.148Z,13.32
2023-04-29T19:32:30.702Z,13.40
2023-04-29T19:34:58.195Z,13.34
2023-04-29T19:37:26.129Z,13.21
2023-04-29T19:39:53.884Z,13.37
2023-04-29T19:42:21.586Z,13.07
2023-04-29T19:44:48.944Z,13.01
2023-04-29T19:47:16.400Z,12.86
2023-04-29T19:49:43.825Z,12.99
2023-04-29T19:52:11.171Z,12.93
2023-04-29T19:54:40.698Z,12.65
2023-04-29T19:57:08.097Z,12.71
2023-04-29T19:59:35.510Z,12.71
2023-04-29T20:02:02.945Z,12.62
2023-04-29T20:04:30.409Z,12.35
2023-04-29T20:06:57.890Z,12.55
2023-04-29T20:09:26.464Z,12.43
2023-04-29T20:11:53.966Z,12.27
2023-04-29T20:14:21.545Z,12.38
2023-04-29T20:16:49.126Z,12.64
2023-04-29T20:19:16.658Z,12.59
2023-04-29T20:21:44.023Z,12.65
2023-04-29T20:24:11.399Z,12.53
2023-04-29T20:26:38.786Z,12.44
2023-04-29T20:29:06.263Z,12.21
2023-04-29T20:31:33.737Z,12.35
2023-04-29T20:34:01.347Z,12.33
2023-04-29T20:36:29.383Z,12.33
2023-04-29T20:38:57.252Z,12.31
2023-04-29T20:41:27.523Z,12.18
2023-04-29T20:43:55.106Z,12.12
2023-04-29T20:46:25.310Z,12.18
2023-04-29T20:48:53.578Z,12.12
2023-04-29T20:51:21.011Z,12.17
2023-04-29T20:53:48.730Z,12.05
2023-04-29T20:56:16.218Z,11.86
2023-04-29T20:58:43.578Z,11.86
2023-04-29T21:01:11.145Z,11.90
2023-04-29T21:03:38.574Z,11.88
2023-04-29T21:06:05.997Z,11.90
2023-04-29T21:08:33.466Z,11.83
2023-04-29T21:11:01.550Z,11.80
2023-04-29T21:13:28.930Z,11.78
2023-04-29T21:15:56.310Z,11.69
2023-04-29T21:18:23.925Z,11.80
2023-04-29T21:20:51.295Z,11.63
2023-04-29T21:23:18.658Z,11.52
2023-04-29T21:25:46.160Z,11.47
2023-04-29T21:28:14.362Z,11.52
2023-04-29T21:30:43.656Z,11.53
2023-04-29T21:33:11.111Z,11.54
2023-04-29T21:35:39.814Z,11.43
2023-04-29T21:38:07.357Z,11.48
2023-04-29T21:40:34.870Z,11.64
2023-04-29T21:43:02.615Z,11.57
2023-04-29T21:45:30.323Z,11.57
2023-04-29T21:48:03.647Z,11.48
2023-04-29T21:50:31.388Z,11.26
2023-04-29T21:52:58.831Z,11.21
2023-04-29T21:55:26.211Z,11.22
2023-04-29T21:57:53.634Z,11.22
2023-04-29T22:00:32.891Z,11.18
2023-04-29T22:03:01.247Z,11.25
2023-04-29T22:05:28.703Z,11.12
2023-04-29T22:07:58.102Z,11.22
2023-04-29T22:10:25.913Z,11.17
2023-04-29T22:12:53.434Z,11.12
2023-04-29T22:15:28.558Z,11.17
2023-04-29T22:17:57.361Z,11.07
2023-04-29T22:20:25.332Z,11.02
2023-04-29T22:22:53.070Z,10.91
2023-04-29T22:25:21.839Z,10.78
2023-04-29T22:27:49.855Z,10.78
2023-04-29T22:30:18.019Z,10.70
2023-04-29T22:32:45.717Z,10.68
2023-04-29T22:35:13.209Z,10.58
2023-04-29T22:37:40.933Z,10.75
2023-04-29T22:40:08.700Z,10.84
2023-04-29T22:42:36.128Z,10.74
2023-04-29T22:45:03.554Z,10.71
2023-04-29T22:47:31.202Z,10.77
2023-04-29T22:49:58.656Z,10.62
2023-04-29T22:52:27.445Z,10.77
2023-04-29T22:54:54.916Z,10.70
2023-04-29T22:57:22.351Z,10.70
2023-04-29T22:59:49.934Z,10.54
2023-04-29T23:02:17.354Z,10.68
2023-04-29T23:04:44.782Z,10.71
2023-04-29T23:07:12.298Z,10.69
2023-04-29T23:09:39.767Z,10.67
2023-04-29T23:12:07.227Z,10.70
2023-04-29T23:14:34.626Z,10.76
2023-04-29T23:17:02.026Z,10.67
2023-04-29T23:19:29.400Z,10.70
2023-04-29T23:21:56.820Z,10.64
2023-04-29T23:24:24.387Z,10.68
2023-04-29T23:26:51.856Z,10.56
2023-04-29T23:29:19.412Z,10.55
2023-04-29T23:31:46.891Z,10.68
2023-04-29T23:34:16.469Z,10.67
2023-04-29T23:36:43.834Z,10.58
2023-04-29T23:39:11.249Z,10.50
2023-04-29T23:41:38.678Z,10.52
2023-04-29T23:44:06.108Z,10.53
2023-04-29T23:46:33.581Z,10.49
2023-04-29T23:49:01.668Z,10.35
2023-04-29T23:51:29.030Z,10.31
2023-04-29T23:53:56.451Z,10.14
2023-04-29T23:56:25.747Z,10.16
2023-04-29T23:58:53.372Z,10.23
